sensor_id;sensor_type;location;lat;lon;timestamp;P1;durP1;ratioP1;P2;durP2;ratioP2
21771;SDS011;11047;47.904;8.110;2022-12-01T00:01:49;8.20;;;5.45;;
21771;SDS011;11047;47.904;8.110;2022-12-01T00:04:15;8.52;;;5.70;;
21771;SDS011;11047;47.904;8.110;2022-12-01T00:06:44;9.70;;;5.30;;
21771;SDS011;11047;47.904;8.110;2022-12-01T00:09:10;7.57;;;4.88;;
21771;SDS011;11047;47.904;8.110;2022-12-01T00:12:09;7.75;;;5.00;;
21771;SDS011;11047;47.904;8.110;2022-12-01T00:14:36;7.05;;;5.20;;
21771;SDS011;11047;47.904;8.110;2022-12-01T00:17:03;6.88;;;5.10;;
21771;SDS011;11047;47.904;8.110;2022-12-01T00:19:30;9.57;;;5.75;;
21771;SDS011;11047;47.904;8.110;2022-12-01T00:21:58;5.85;;;4.82;;
21771;SDS011;11047;47.904;8.110;2022-12-01T00:24:25;7.57;;;4.68;;
21771;SDS011;11047;47.904;8.110;2022-12-01T00:26:52;6.90;;;4.70;;
21771;SDS011;11047;47.904;8.110;2022-12-01T00:29:19;8.50;;;5.03;;
21771;SDS011;11047;47.904;8.110;2022-12-01T00:31:46;6.57;;;4.72;;
21771;SDS011;11047;47.904;8.110;2022-12-01T00:34:19;9.48;;;5.75;;
21771;SDS011;11047;47.904;8.110;2022-12-01T00:36:48;8.02;;;4.90;;
21771;SDS011;11047;47.904;8.110;2022-12-01T00:39:16;6.05;;;4.70;;
21771;SDS011;11047;47.904;8.110;2022-12-01T00:41:43;7.07;;;5.20;;
21771;SDS011;11047;47.904;8.110;2022-12-01T00:44:10;6.78;;;4.57;;
21771;SDS011;11047;47.904;8.110;2022-12-01T00:46:36;8.82;;;5.22;;
21771;SDS011;11047;47.904;8.110;2022-12-01T00:49:03;10.35;;;6.00;;
21771;SDS011;11047;47.904;8.110;2022-12-01T00:51:31;10.68;;;6.25;;
21771;SDS011;11047;47.904;8.110;2022-12-01T00:53:58;8.77;;;5.50;;
21771;SDS011;11047;47.904;8.110;2022-12-01T00:56:26;11.40;;;4.78;;
21771;SDS011;11047;47.904;8.110;2022-12-01T00:58:53;8.35;;;5.35;;
21771;SDS011;11047;47.904;8.110;2022-12-01T01:01:20;9.45;;;5.15;;
21771;SDS011;11047;47.904;8.110;2022-12-01T01:03:47;8.18;;;4.82;;
21771;SDS011;11047;47.904;8.110;2022-12-01T01:06:14;7.72;;;5.22;;
21771;SDS011;11047;47.904;8.110;2022-12-01T01:08:41;7.30;;;5.20;;
21771;SDS011;11047;47.904;8.110;2022-12-01T01:11:08;8.60;;;5.30;;
21771;SDS011;11047;47.904;8.110;2022-12-01T01:13:37;7.20;;;4.65;;
21771;SDS011;11047;47.904;8.110;2022-12-01T01:16:05;8.10;;;4.78;;
21771;SDS011;11047;47.904;8.110;2022-12-01T01:18:35;7.72;;;5.47;;
21771;SDS011;11047;47.904;8.110;2022-12-01T01:21:03;6.78;;;4.55;;
21771;SDS011;11047;47.904;8.110;2022-12-01T01:23:32;6.97;;;5.00;;
21771;SDS011;11047;47.904;8.110;2022-12-01T01:25:59;6.90;;;5.22;;
21771;SDS011;11047;47.904;8.110;2022-12-01T01:28:27;7.45;;;4.30;;
21771;SDS011;11047;47.904;8.110;2022-12-01T01:30:56;6.78;;;4.75;;
21771;SDS011;11047;47.904;8.110;2022-12-01T01:33:23;9.13;;;5.45;;
21771;SDS011;11047;47.904;8.110;2022-12-01T01:35:50;7.55;;;5.05;;
21771;SDS011;11047;47.904;8.110;2022-12-01T01:38:17;8.13;;;5.07;;
21771;SDS011;11047;47.904;8.110;2022-12-01T01:40:44;6.97;;;4.30;;
21771;SDS011;11047;47.904;8.110;2022-12-01T01:43:12;8.38;;;5.20;;
21771;SDS011;11047;47.904;8.110;2022-12-01T01:45:41;10.88;;;4.68;;
21771;SDS011;11047;47.904;8.110;2022-12-01T01:48:09;6.85;;;4.90;;
21771;SDS011;11047;47.904;8.110;2022-12-01T01:50:38;7.80;;;5.15;;
21771;SDS011;11047;47.904;8.110;2022-12-01T01:53:06;6.78;;;4.88;;
21771;SDS011;11047;47.904;8.110;2022-12-01T01:55:36;7.70;;;4.65;;
21771;SDS011;11047;47.904;8.110;2022-12-01T01:58:04;7.85;;;5.40;;
21771;SDS011;11047;47.904;8.110;2022-12-01T02:00:34;7.88;;;5.75;;
21771;SDS011;11047;47.904;8.110;2022-12-01T02:03:03;7.50;;;4.60;;
21771;SDS011;11047;47.904;8.110;2022-12-01T02:05:31;9.50;;;5.93;;
21771;SDS011;11047;47.904;8.110;2022-12-01T02:08:01;8.52;;;5.18;;
21771;SDS011;11047;47.904;8.110;2022-12-01T02:10:31;7.07;;;5.05;;
21771;SDS011;11047;47.904;8.110;2022-12-01T02:13:13;8.82;;;5.25;;
21771;SDS011;11047;47.904;8.110;2022-12-01T02:15:45;7.72;;;5.60;;
21771;SDS011;11047;47.904;8.110;2022-12-01T02:18:21;6.28;;;4.90;;
21771;SDS011;11047;47.904;8.110;2022-12-01T02:21:04;7.50;;;5.00;;
21771;SDS011;11047;47.904;8.110;2022-12-01T02:23:53;7.55;;;5.10;;
21771;SDS011;11047;47.904;8.110;2022-12-01T02:26:45;6.88;;;4.68;;
21771;SDS011;11047;47.904;8.110;2022-12-01T02:29:22;6.38;;;4.47;;
21771;SDS011;11047;47.904;8.110;2022-12-01T02:32:16;8.00;;;4.43;;
21771;SDS011;11047;47.904;8.110;2022-12-01T02:34:49;8.70;;;5.00;;
21771;SDS011;11047;47.904;8.110;2022-12-01T02:37:22;7.53;;;5.10;;
21771;SDS011;11047;47.904;8.110;2022-12-01T02:39:54;7.65;;;4.97;;
21771;SDS011;11047;47.904;8.110;2022-12-01T02:42:28;6.97;;;4.22;;
21771;SDS011;11047;47.904;8.110;2022-12-01T02:45:22;8.95;;;5.35;;
21771;SDS011;11047;47.904;8.110;2022-12-01T02:47:58;7.50;;;5.28;;
21771;SDS011;11047;47.904;8.110;2022-12-01T02:50:28;7.05;;;5.25;;
21771;SDS011;11047;47.904;8.110;2022-12-01T02:52:58;6.93;;;4.75;;
21771;SDS011;11047;47.904;8.110;2022-12-01T02:55:28;7.53;;;5.38;;
21771;SDS011;11047;47.904;8.110;2022-12-01T02:57:55;8.10;;;5.88;;
21771;SDS011;11047;47.904;8.110;2022-12-01T03:00:21;8.77;;;5.07;;
21771;SDS011;11047;47.904;8.110;2022-12-01T03:02:56;7.85;;;5.50;;
21771;SDS011;11047;47.904;8.110;2022-12-01T03:05:43;7.10;;;5.43;;
21771;SDS011;11047;47.904;8.110;2022-12-01T03:08:19;6.93;;;5.10;;
21771;SDS011;11047;47.904;8.110;2022-12-01T03:10:52;8.18;;;5.78;;
21771;SDS011;11047;47.904;8.110;2022-12-01T03:13:25;8.43;;;5.50;;
21771;SDS011;11047;47.904;8.110;2022-12-01T03:16:04;8.57;;;5.47;;
21771;SDS011;11047;47.904;8.110;2022-12-01T03:18:36;8.90;;;5.80;;
21771;SDS011;11047;47.904;8.110;2022-12-01T03:21:06;9.13;;;5.75;;
21771;SDS011;11047;47.904;8.110;2022-12-01T03:23:36;8.55;;;6.18;;
21771;SDS011;11047;47.904;8.110;2022-12-01T03:26:06;7.03;;;5.30;;
21771;SDS011;11047;47.904;8.110;2022-12-01T03:28:36;11.15;;;6.80;;
21771;SDS011;11047;47.904;8.110;2022-12-01T03:31:09;9.00;;;5.97;;
21771;SDS011;11047;47.904;8.110;2022-12-01T03:33:44;8.73;;;6.38;;
21771;SDS011;11047;47.904;8.110;2022-12-01T03:36:18;9.82;;;6.57;;
21771;SDS011;11047;47.904;8.110;2022-12-01T03:38:49;10.27;;;6.63;;
21771;SDS011;11047;47.904;8.110;2022-12-01T03:41:20;9.70;;;6.38;;
21771;SDS011;11047;47.904;8.110;2022-12-01T03:43:52;9.43;;;6.40;;
21771;SDS011;11047;47.904;8.110;2022-12-01T03:46:23;7.88;;;5.78;;
21771;SDS011;11047;47.904;8.110;2022-12-01T03:48:59;8.40;;;5.90;;
21771;SDS011;11047;47.904;8.110;2022-12-01T03:51:30;7.05;;;5.43;;
21771;SDS011;11047;47.904;8.110;2022-12-01T03:54:06;9.80;;;6.45;;
21771;SDS011;11047;47.904;8.110;2022-12-01T03:56:37;8.50;;;5.97;;
21771;SDS011;11047;47.904;8.110;2022-12-01T03:59:09;10.20;;;6.35;;
21771;SDS011;11047;47.904;8.110;2022-12-01T04:01:38;8.15;;;6.03;;
21771;SDS011;11047;47.904;8.110;2022-12-01T04:04:07;10.27;;;7.15;;
21771;SDS011;11047;47.904;8.110;2022-12-01T04:06:35;10.63;;;6.00;;
21771;SDS011;11047;47.904;8.110;2022-12-01T04:09:02;8.98;;;6.22;;
21771;SDS011;11047;47.904;8.110;2022-12-01T04:11:29;8.65;;;6.05;;
21771;SDS011;11047;47.904;8.110;2022-12-01T04:14:14;7.72;;;5.35;;
21771;SDS011;11047;47.904;8.110;2022-12-01T04:16:41;8.27;;;5.60;;
21771;SDS011;11047;47.904;8.110;2022-12-01T04:19:09;9.88;;;5.93;;
21771;SDS011;11047;47.904;8.110;2022-12-01T04:21:36;8.00;;;5.82;;
21771;SDS011;11047;47.904;8.110;2022-12-01T04:24:03;10.88;;;6.03;;
21771;SDS011;11047;47.904;8.110;2022-12-01T04:26:31;8.57;;;5.88;;
21771;SDS011;11047;47.904;8.110;2022-12-01T04:28:59;8.50;;;6.18;;
21771;SDS011;11047;47.904;8.110;2022-12-01T04:31:27;7.95;;;5.80;;
21771;SDS011;11047;47.904;8.110;2022-12-01T04:33:54;8.88;;;6.35;;
21771;SDS011;11047;47.904;8.110;2022-12-01T04:36:23;9.80;;;6.45;;
21771;SDS011;11047;47.904;8.110;2022-12-01T04:38:51;9.38;;;6.18;;
21771;SDS011;11047;47.904;8.110;2022-12-01T04:41:18;9.90;;;5.68;;
21771;SDS011;11047;47.904;8.110;2022-12-01T04:43:45;8.05;;;5.70;;
21771;SDS011;11047;47.904;8.110;2022-12-01T04:46:13;9.38;;;6.80;;
21771;SDS011;11047;47.904;8.110;2022-12-01T04:48:40;11.05;;;7.45;;
21771;SDS011;11047;47.904;8.110;2022-12-01T04:51:07;9.88;;;6.72;;
21771;SDS011;11047;47.904;8.110;2022-12-01T04:53:35;9.10;;;7.07;;
21771;SDS011;11047;47.904;8.110;2022-12-01T04:56:03;10.75;;;7.10;;
21771;SDS011;11047;47.904;8.110;2022-12-01T04:58:30;12.50;;;7.20;;
21771;SDS011;11047;47.904;8.110;2022-12-01T05:00:59;10.10;;;6.80;;
21771;SDS011;11047;47.904;8.110;2022-12-01T05:03:27;14.18;;;7.45;;
21771;SDS011;11047;47.904;8.110;2022-12-01T05:05:59;10.82;;;7.40;;
21771;SDS011;11047;47.904;8.110;2022-12-01T05:08:27;11.98;;;7.55;;
21771;SDS011;11047;47.904;8.110;2022-12-01T05:10:55;9.40;;;7.10;;
21771;SDS011;11047;47.904;8.110;2022-12-01T05:13:22;11.77;;;7.47;;
21771;SDS011;11047;47.904;8.110;2022-12-01T05:15:49;16.88;;;8.35;;
21771;SDS011;11047;47.904;8.110;2022-12-01T05:18:17;10.48;;;7.18;;
21771;SDS011;11047;47.904;8.110;2022-12-01T05:20:43;11.80;;;6.55;;
21771;SDS011;11047;47.904;8.110;2022-12-01T05:23:21;11.18;;;7.95;;
21771;SDS011;11047;47.904;8.110;2022-12-01T05:25:48;10.30;;;7.03;;
21771;SDS011;11047;47.904;8.110;2022-12-01T05:28:16;10.45;;;6.90;;
21771;SDS011;11047;47.904;8.110;2022-12-01T05:30:43;9.70;;;6.82;;
21771;SDS011;11047;47.904;8.110;2022-12-01T05:33:10;9.02;;;6.30;;
21771;SDS011;11047;47.904;8.110;2022-12-01T05:35:37;9.65;;;6.68;;
21771;SDS011;11047;47.904;8.110;2022-12-01T05:38:04;9.45;;;6.40;;
21771;SDS011;11047;47.904;8.110;2022-12-01T05:40:32;8.05;;;6.28;;
21771;SDS011;11047;47.904;8.110;2022-12-01T05:42:59;10.77;;;6.65;;
21771;SDS011;11047;47.904;8.110;2022-12-01T05:45:28;10.40;;;6.88;;
21771;SDS011;11047;47.904;8.110;2022-12-01T05:47:55;10.02;;;6.90;;
21771;SDS011;11047;47.904;8.110;2022-12-01T05:50:23;10.48;;;6.68;;
21771;SDS011;11047;47.904;8.110;2022-12-01T05:52:51;12.43;;;7.85;;
21771;SDS011;11047;47.904;8.110;2022-12-01T05:55:18;11.95;;;7.80;;
21771;SDS011;11047;47.904;8.110;2022-12-01T05:57:45;9.85;;;7.13;;
21771;SDS011;11047;47.904;8.110;2022-12-01T06:00:13;11.63;;;7.50;;
21771;SDS011;11047;47.904;8.110;2022-12-01T06:02:42;10.50;;;7.30;;
21771;SDS011;11047;47.904;8.110;2022-12-01T06:05:09;13.32;;;8.93;;
21771;SDS011;11047;47.904;8.110;2022-12-01T06:07:36;13.75;;;8.75;;
21771;SDS011;11047;47.904;8.110;2022-12-01T06:10:04;15.43;;;9.07;;
21771;SDS011;11047;47.904;8.110;2022-12-01T06:12:33;15.25;;;9.52;;
21771;SDS011;11047;47.904;8.110;2022-12-01T06:15:00;14.68;;;9.98;;
21771;SDS011;11047;47.904;8.110;2022-12-01T06:17:27;17.10;;;9.80;;
21771;SDS011;11047;47.904;8.110;2022-12-01T06:19:55;17.40;;;11.05;;
21771;SDS011;11047;47.904;8.110;2022-12-01T06:22:22;17.33;;;11.02;;
21771;SDS011;11047;47.904;8.110;2022-12-01T06:24:49;17.00;;;11.00;;
21771;SDS011;11047;47.904;8.110;2022-12-01T06:27:16;16.25;;;10.70;;
21771;SDS011;11047;47.904;8.110;2022-12-01T06:29:43;17.52;;;11.88;;
21771;SDS011;11047;47.904;8.110;2022-12-01T06:32:10;16.92;;;11.57;;
21771;SDS011;11047;47.904;8.110;2022-12-01T06:34:37;18.08;;;11.93;;
21771;SDS011;11047;47.904;8.110;2022-12-01T06:37:05;19.00;;;12.57;;
21771;SDS011;11047;47.904;8.110;2022-12-01T06:39:32;18.30;;;10.93;;
21771;SDS011;11047;47.904;8.110;2022-12-01T06:41:59;16.50;;;10.88;;
21771;SDS011;11047;47.904;8.110;2022-12-01T06:44:26;18.08;;;11.73;;
21771;SDS011;11047;47.904;8.110;2022-12-01T06:46:53;16.77;;;11.65;;
21771;SDS011;11047;47.904;8.110;2022-12-01T06:49:21;24.17;;;14.23;;
21771;SDS011;11047;47.904;8.110;2022-12-01T06:51:49;21.17;;;12.43;;
21771;SDS011;11047;47.904;8.110;2022-12-01T06:54:17;18.58;;;11.13;;
21771;SDS011;11047;47.904;8.110;2022-12-01T06:56:45;20.23;;;12.13;;
21771;SDS011;11047;47.904;8.110;2022-12-01T06:59:12;21.00;;;11.27;;
21771;SDS011;11047;47.904;8.110;2022-12-01T07:01:39;16.52;;;11.10;;
21771;SDS011;11047;47.904;8.110;2022-12-01T07:04:06;18.50;;;10.65;;
21771;SDS011;11047;47.904;8.110;2022-12-01T07:06:33;17.60;;;11.50;;
21771;SDS011;11047;47.904;8.110;2022-12-01T07:09:00;18.48;;;11.23;;
21771;SDS011;11047;47.904;8.110;2022-12-01T07:11:28;17.92;;;11.27;;
21771;SDS011;11047;47.904;8.110;2022-12-01T07:13:56;19.60;;;11.40;;
21771;SDS011;11047;47.904;8.110;2022-12-01T07:16:23;21.55;;;11.70;;
21771;SDS011;11047;47.904;8.110;2022-12-01T07:18:50;20.35;;;11.60;;
21771;SDS011;11047;47.904;8.110;2022-12-01T07:21:17;21.90;;;12.23;;
21771;SDS011;11047;47.904;8.110;2022-12-01T07:23:44;21.75;;;12.13;;
21771;SDS011;11047;47.904;8.110;2022-12-01T07:26:11;19.80;;;11.30;;
21771;SDS011;11047;47.904;8.110;2022-12-01T07:28:41;19.55;;;11.68;;
21771;SDS011;11047;47.904;8.110;2022-12-01T07:31:08;21.10;;;11.85;;
21771;SDS011;11047;47.904;8.110;2022-12-01T07:33:37;19.60;;;12.02;;
21771;SDS011;11047;47.904;8.110;2022-12-01T07:36:05;23.95;;;13.05;;
21771;SDS011;11047;47.904;8.110;2022-12-01T07:38:33;21.63;;;12.88;;
21771;SDS011;11047;47.904;8.110;2022-12-01T07:41:01;22.25;;;12.27;;
21771;SDS011;11047;47.904;8.110;2022-12-01T07:43:29;22.42;;;13.15;;
21771;SDS011;11047;47.904;8.110;2022-12-01T07:46:01;21.95;;;12.73;;
21771;SDS011;11047;47.904;8.110;2022-12-01T07:48:29;22.40;;;13.13;;
21771;SDS011;11047;47.904;8.110;2022-12-01T07:50:56;22.88;;;13.15;;
21771;SDS011;11047;47.904;8.110;2022-12-01T07:53:23;23.63;;;13.20;;
21771;SDS011;11047;47.904;8.110;2022-12-01T07:55:50;25.85;;;13.48;;
21771;SDS011;11047;47.904;8.110;2022-12-01T07:58:17;23.73;;;13.27;;
21771;SDS011;11047;47.904;8.110;2022-12-01T08:00:44;23.85;;;13.57;;
21771;SDS011;11047;47.904;8.110;2022-12-01T08:03:12;25.10;;;12.80;;
21771;SDS011;11047;47.904;8.110;2022-12-01T08:05:39;26.15;;;13.93;;
21771;SDS011;11047;47.904;8.110;2022-12-01T08:08:06;22.60;;;12.57;;
21771;SDS011;11047;47.904;8.110;2022-12-01T08:10:33;24.73;;;14.27;;
21771;SDS011;11047;47.904;8.110;2022-12-01T08:13:00;22.10;;;12.18;;
21771;SDS011;11047;47.904;8.110;2022-12-01T08:15:27;23.20;;;12.90;;
21771;SDS011;11047;47.904;8.110;2022-12-01T08:17:54;25.15;;;13.65;;
21771;SDS011;11047;47.904;8.110;2022-12-01T08:20:26;21.67;;;13.02;;
21771;SDS011;11047;47.904;8.110;2022-12-01T08:22:53;20.55;;;11.45;;
21771;SDS011;11047;47.904;8.110;2022-12-01T08:25:20;23.42;;;12.68;;
21771;SDS011;11047;47.904;8.110;2022-12-01T08:27:47;19.75;;;11.27;;
21771;SDS011;11047;47.904;8.110;2022-12-01T08:30:14;19.85;;;11.73;;
21771;SDS011;11047;47.904;8.110;2022-12-01T08:32:41;22.85;;;11.10;;
21771;SDS011;11047;47.904;8.110;2022-12-01T08:35:08;18.75;;;11.18;;
21771;SDS011;11047;47.904;8.110;2022-12-01T08:37:36;17.70;;;11.05;;
21771;SDS011;11047;47.904;8.110;2022-12-01T08:40:04;21.05;;;12.38;;
21771;SDS011;11047;47.904;8.110;2022-12-01T08:42:31;23.05;;;11.70;;
21771;SDS011;11047;47.904;8.110;2022-12-01T08:44:58;21.50;;;12.98;;
21771;SDS011;11047;47.904;8.110;2022-12-01T08:47:26;22.00;;;12.95;;
21771;SDS011;11047;47.904;8.110;2022-12-01T08:49:53;26.02;;;14.63;;
21771;SDS011;11047;47.904;8.110;2022-12-01T08:52:20;26.20;;;13.57;;
21771;SDS011;11047;47.904;8.110;2022-12-01T08:54:48;23.15;;;12.85;;
21771;SDS011;11047;47.904;8.110;2022-12-01T08:57:15;25.13;;;13.15;;
21771;SDS011;11047;47.904;8.110;2022-12-01T08:59:42;25.15;;;14.02;;
21771;SDS011;11047;47.904;8.110;2022-12-01T09:02:10;23.77;;;12.77;;
21771;SDS011;11047;47.904;8.110;2022-12-01T09:04:39;27.00;;;14.88;;
21771;SDS011;11047;47.904;8.110;2022-12-01T09:07:08;22.83;;;13.77;;
21771;SDS011;11047;47.904;8.110;2022-12-01T09:09:36;29.35;;;15.40;;
21771;SDS011;11047;47.904;8.110;2022-12-01T09:12:04;25.65;;;15.18;;
21771;SDS011;11047;47.904;8.110;2022-12-01T09:14:35;25.10;;;13.90;;
21771;SDS011;11047;47.904;8.110;2022-12-01T09:17:03;25.17;;;14.35;;
21771;SDS011;11047;47.904;8.110;2022-12-01T09:19:30;25.92;;;14.18;;
21771;SDS011;11047;47.904;8.110;2022-12-01T09:21:57;21.63;;;12.65;;
21771;SDS011;11047;47.904;8.110;2022-12-01T09:24:24;23.42;;;12.07;;
21771;SDS011;11047;47.904;8.110;2022-12-01T09:26:53;21.10;;;12.35;;
21771;SDS011;11047;47.904;8.110;2022-12-01T09:29:22;24.17;;;12.32;;
21771;SDS011;11047;47.904;8.110;2022-12-01T09:31:49;21.42;;;12.30;;
21771;SDS011;11047;47.904;8.110;2022-12-01T09:34:16;23.42;;;11.75;;
21771;SDS011;11047;47.904;8.110;2022-12-01T09:36:45;17.58;;;10.93;;
21771;SDS011;11047;47.904;8.110;2022-12-01T09:39:14;20.80;;;11.88;;
21771;SDS011;11047;47.904;8.110;2022-12-01T09:41:43;16.70;;;10.32;;
21771;SDS011;11047;47.904;8.110;2022-12-01T09:44:14;17.42;;;10.85;;
21771;SDS011;11047;47.904;8.110;2022-12-01T09:46:48;15.00;;;9.73;;
21771;SDS011;11047;47.904;8.110;2022-12-01T09:49:21;16.67;;;9.75;;
21771;SDS011;11047;47.904;8.110;2022-12-01T09:51:51;16.75;;;9.98;;
21771;SDS011;11047;47.904;8.110;2022-12-01T09:54:19;16.25;;;9.15;;
21771;SDS011;11047;47.904;8.110;2022-12-01T09:56:47;14.48;;;8.80;;
21771;SDS011;11047;47.904;8.110;2022-12-01T09:59:17;13.48;;;8.07;;
21771;SDS011;11047;47.904;8.110;2022-12-01T10:01:50;13.75;;;7.88;;
21771;SDS011;11047;47.904;8.110;2022-12-01T10:04:23;12.15;;;7.40;;
21771;SDS011;11047;47.904;8.110;2022-12-01T10:06:55;11.88;;;6.85;;
21771;SDS011;11047;47.904;8.110;2022-12-01T10:09:25;15.25;;;6.90;;
21771;SDS011;11047;47.904;8.110;2022-12-01T10:12:00;11.23;;;6.85;;
21771;SDS011;11047;47.904;8.110;2022-12-01T10:14:35;11.07;;;6.25;;
21771;SDS011;11047;47.904;8.110;2022-12-01T10:17:06;9.95;;;6.10;;
21771;SDS011;11047;47.904;8.110;2022-12-01T10:19:42;10.13;;;6.05;;
21771;SDS011;11047;47.904;8.110;2022-12-01T10:22:19;7.78;;;5.28;;
21771;SDS011;11047;47.904;8.110;2022-12-01T10:25:04;7.35;;;5.15;;
21771;SDS011;11047;47.904;8.110;2022-12-01T10:27:42;7.43;;;5.03;;
21771;SDS011;11047;47.904;8.110;2022-12-01T10:30:14;7.88;;;4.95;;
21771;SDS011;11047;47.904;8.110;2022-12-01T10:32:46;7.07;;;4.50;;
21771;SDS011;11047;47.904;8.110;2022-12-01T10:35:18;7.88;;;5.53;;
21771;SDS011;11047;47.904;8.110;2022-12-01T10:37:47;7.82;;;5.05;;
21771;SDS011;11047;47.904;8.110;2022-12-01T10:40:19;9.32;;;5.50;;
21771;SDS011;11047;47.904;8.110;2022-12-01T10:42:46;8.95;;;5.63;;
21771;SDS011;11047;47.904;8.110;2022-12-01T10:45:15;8.05;;;5.13;;
21771;SDS011;11047;47.904;8.110;2022-12-01T10:50:37;7.70;;;5.28;;
21771;SDS011;11047;47.904;8.110;2022-12-01T10:53:05;12.43;;;5.78;;
21771;SDS011;11047;47.904;8.110;2022-12-01T10:55:34;9.45;;;5.85;;
21771;SDS011;11047;47.904;8.110;2022-12-01T10:58:04;10.07;;;5.28;;
21771;SDS011;11047;47.904;8.110;2022-12-01T11:00:39;8.43;;;5.13;;
21771;SDS011;11047;47.904;8.110;2022-12-01T11:03:16;7.95;;;5.20;;
21771;SDS011;11047;47.904;8.110;2022-12-01T11:05:45;10.98;;;5.47;;
21771;SDS011;11047;47.904;8.110;2022-12-01T11:08:21;9.30;;;5.63;;
21771;SDS011;11047;47.904;8.110;2022-12-01T11:10:50;8.68;;;5.90;;
21771;SDS011;11047;47.904;8.110;2022-12-01T11:13:19;7.38;;;5.43;;
21771;SDS011;11047;47.904;8.110;2022-12-01T11:16:04;13.23;;;5.57;;
21771;SDS011;11047;47.904;8.110;2022-12-01T11:28:19;6.45;;;4.43;;
21771;SDS011;11047;47.904;8.110;2022-12-01T11:30:46;7.40;;;4.40;;
21771;SDS011;11047;47.904;8.110;2022-12-01T11:33:21;6.90;;;4.80;;
21771;SDS011;11047;47.904;8.110;2022-12-01T11:35:48;6.07;;;4.55;;
21771;SDS011;11047;47.904;8.110;2022-12-01T11:38:18;8.82;;;5.57;;
21771;SDS011;11047;47.904;8.110;2022-12-01T11:40:47;10.13;;;6.07;;
21771;SDS011;11047;47.904;8.110;2022-12-01T11:43:22;8.20;;;5.32;;
21771;SDS011;11047;47.904;8.110;2022-12-01T11:45:52;8.85;;;5.60;;
21771;SDS011;11047;47.904;8.110;2022-12-01T11:48:22;8.23;;;5.60;;
21771;SDS011;11047;47.904;8.110;2022-12-01T11:51:01;10.05;;;6.00;;
21771;SDS011;11047;47.904;8.110;2022-12-01T11:53:31;7.25;;;5.18;;
21771;SDS011;11047;47.904;8.110;2022-12-01T11:56:13;9.75;;;6.50;;
21771;SDS011;11047;47.904;8.110;2022-12-01T11:58:44;8.07;;;5.60;;
21771;SDS011;11047;47.904;8.110;2022-12-01T12:01:14;9.35;;;6.28;;
21771;SDS011;11047;47.904;8.110;2022-12-01T12:03:49;6.82;;;5.30;;
21771;SDS011;11047;47.904;8.110;2022-12-01T12:06:24;9.93;;;6.22;;
21771;SDS011;11047;47.904;8.110;2022-12-01T12:09:02;10.07;;;5.35;;
21771;SDS011;11047;47.904;8.110;2022-12-01T12:11:42;8.88;;;5.70;;
21771;SDS011;11047;47.904;8.110;2022-12-01T12:16:52;10.52;;;5.88;;
21771;SDS011;11047;47.904;8.110;2022-12-01T12:19:59;10.63;;;5.93;;
21771;SDS011;11047;47.904;8.110;2022-12-01T12:22:50;9.18;;;6.25;;
21771;SDS011;11047;47.904;8.110;2022-12-01T12:25:28;17.10;;;6.65;;
21771;SDS011;11047;47.904;8.110;2022-12-01T12:28:11;7.80;;;5.45;;
21771;SDS011;11047;47.904;8.110;2022-12-01T12:30:53;8.30;;;5.03;;
21771;SDS011;11047;47.904;8.110;2022-12-01T12:33:39;7.45;;;5.13;;
21771;SDS011;11047;47.904;8.110;2022-12-01T12:36:35;9.05;;;5.07;;
21771;SDS011;11047;47.904;8.110;2022-12-01T12:39:18;8.45;;;6.35;;
21771;SDS011;11047;47.904;8.110;2022-12-01T12:41:58;8.07;;;5.45;;
21771;SDS011;11047;47.904;8.110;2022-12-01T12:44:39;6.22;;;4.20;;
21771;SDS011;11047;47.904;8.110;2022-12-01T12:47:19;6.78;;;4.75;;
21771;SDS011;11047;47.904;8.110;2022-12-01T12:50:14;8.65;;;4.78;;
21771;SDS011;11047;47.904;8.110;2022-12-01T12:52:49;6.60;;;4.30;;
21771;SDS011;11047;47.904;8.110;2022-12-01T12:55:22;6.82;;;4.00;;
21771;SDS011;11047;47.904;8.110;2022-12-01T12:57:52;5.45;;;3.75;;
21771;SDS011;11047;47.904;8.110;2022-12-01T13:00:23;12.80;;;4.90;;
21771;SDS011;11047;47.904;8.110;2022-12-01T13:02:54;8.48;;;4.63;;
21771;SDS011;11047;47.904;8.110;2022-12-01T13:05:25;7.72;;;4.47;;
21771;SDS011;11047;47.904;8.110;2022-12-01T13:07:55;8.65;;;4.15;;
21771;SDS011;11047;47.904;8.110;2022-12-01T13:10:29;6.38;;;4.40;;
21771;SDS011;11047;47.904;8.110;2022-12-01T13:13:03;8.05;;;4.35;;
21771;SDS011;11047;47.904;8.110;2022-12-01T13:15:38;7.60;;;4.43;;
21771;SDS011;11047;47.904;8.110;2022-12-01T13:18:11;8.57;;;5.85;;
21771;SDS011;11047;47.904;8.110;2022-12-01T13:20:50;7.40;;;4.80;;
21771;SDS011;11047;47.904;8.110;2022-12-01T13:23:19;9.57;;;5.85;;
21771;SDS011;11047;47.904;8.110;2022-12-01T13:25:48;10.40;;;6.13;;
21771;SDS011;11047;47.904;8.110;2022-12-01T13:28:19;10.75;;;6.88;;
21771;SDS011;11047;47.904;8.110;2022-12-01T13:33:35;7.47;;;5.47;;
21771;SDS011;11047;47.904;8.110;2022-12-01T13:36:06;7.05;;;5.03;;
21771;SDS011;11047;47.904;8.110;2022-12-01T13:38:35;11.20;;;6.28;;
21771;SDS011;11047;47.904;8.110;2022-12-01T13:41:13;7.78;;;5.22;;
21771;SDS011;11047;47.904;8.110;2022-12-01T13:43:51;7.57;;;5.50;;
21771;SDS011;11047;47.904;8.110;2022-12-01T13:46:24;9.45;;;6.07;;
21771;SDS011;11047;47.904;8.110;2022-12-01T13:48:55;8.15;;;5.68;;
21771;SDS011;11047;47.904;8.110;2022-12-01T13:51:23;6.90;;;4.90;;
21771;SDS011;11047;47.904;8.110;2022-12-01T13:53:55;8.25;;;5.72;;
21771;SDS011;11047;47.904;8.110;2022-12-01T13:56:36;6.97;;;5.35;;
21771;SDS011;11047;47.904;8.110;2022-12-01T14:02:17;9.02;;;5.50;;
21771;SDS011;11047;47.904;8.110;2022-12-01T14:04:46;9.45;;;6.03;;
21771;SDS011;11047;47.904;8.110;2022-12-01T14:07:26;9.35;;;6.30;;
21771;SDS011;11047;47.904;8.110;2022-12-01T14:10:11;11.32;;;6.25;;
21771;SDS011;11047;47.904;8.110;2022-12-01T14:12:46;7.70;;;5.60;;
21771;SDS011;11047;47.904;8.110;2022-12-01T14:15:20;13.25;;;6.10;;
21771;SDS011;11047;47.904;8.110;2022-12-01T14:18:03;7.95;;;5.80;;
21771;SDS011;11047;47.904;8.110;2022-12-01T14:20:34;9.77;;;6.45;;
21771;SDS011;11047;47.904;8.110;2022-12-01T14:23:11;12.23;;;7.15;;
21771;SDS011;11047;47.904;8.110;2022-12-01T14:25:41;10.20;;;7.07;;
21771;SDS011;11047;47.904;8.110;2022-12-01T14:28:24;9.75;;;6.95;;
21771;SDS011;11047;47.904;8.110;2022-12-01T14:34:27;8.65;;;5.43;;
21771;SDS011;11047;47.904;8.110;2022-12-01T14:37:01;9.55;;;6.32;;
21771;SDS011;11047;47.904;8.110;2022-12-01T14:39:31;9.13;;;5.77;;
21771;SDS011;11047;47.904;8.110;2022-12-01T14:42:00;7.20;;;5.25;;
21771;SDS011;11047;47.904;8.110;2022-12-01T14:44:33;6.72;;;4.93;;
21771;SDS011;11047;47.904;8.110;2022-12-01T14:47:04;7.50;;;5.25;;
21771;SDS011;11047;47.904;8.110;2022-12-01T14:49:38;7.05;;;5.07;;
21771;SDS011;11047;47.904;8.110;2022-12-01T14:52:13;9.00;;;5.47;;
21771;SDS011;11047;47.904;8.110;2022-12-01T14:54:46;8.40;;;5.18;;
21771;SDS011;11047;47.904;8.110;2022-12-01T14:57:15;7.07;;;5.03;;
21771;SDS011;11047;47.904;8.110;2022-12-01T14:59:44;7.40;;;4.90;;
21771;SDS011;11047;47.904;8.110;2022-12-01T15:02:11;10.15;;;6.68;;
21771;SDS011;11047;47.904;8.110;2022-12-01T15:07:36;10.10;;;6.78;;
21771;SDS011;11047;47.904;8.110;2022-12-01T15:10:04;10.57;;;6.47;;
21771;SDS011;11047;47.904;8.110;2022-12-01T15:12:40;11.57;;;7.47;;
21771;SDS011;11047;47.904;8.110;2022-12-01T15:15:12;10.15;;;7.00;;
21771;SDS011;11047;47.904;8.110;2022-12-01T15:22:54;10.68;;;7.15;;
21771;SDS011;11047;47.904;8.110;2022-12-01T15:25:22;10.25;;;6.72;;
21771;SDS011;11047;47.904;8.110;2022-12-01T15:28:03;9.15;;;6.38;;
21771;SDS011;11047;47.904;8.110;2022-12-01T15:33:04;9.65;;;6.10;;
21771;SDS011;11047;47.904;8.110;2022-12-01T15:35:31;10.57;;;6.97;;